sensor_id;sensor_type;location;lat;lon;timestamp;P1;durP1;ratioP1;P2;durP2;ratioP2
59555;SDS011;45374;52.746;6.304;2022-07-29T00:01:20;5.32;;;2.20;;
59555;SDS011;45374;52.746;6.304;2022-07-29T00:03:45;6.20;;;2.55;;
59555;SDS011;45374;52.746;6.304;2022-07-29T00:06:11;5.40;;;2.45;;
59555;SDS011;45374;52.746;6.304;2022-07-29T00:08:37;5.30;;;2.53;;
59555;SDS011;45374;52.746;6.304;2022-07-29T00:11:03;5.95;;;2.50;;
59555;SDS011;45374;52.746;6.304;2022-07-29T00:13:29;5.63;;;2.55;;
59555;SDS011;45374;52.746;6.304;2022-07-29T00:15:54;4.68;;;2.65;;
59555;SDS011;45374;52.746;6.304;2022-07-29T00:18:20;5.38;;;2.78;;
59555;SDS011;45374;52.746;6.304;2022-07-29T00:20:45;6.28;;;2.45;;
59555;SDS011;45374;52.746;6.304;2022-07-29T00:23:11;4.97;;;2.53;;
59555;SDS011;45374;52.746;6.304;2022-07-29T00:25:36;6.28;;;2.60;;
59555;SDS011;45374;52.746;6.304;2022-07-29T00:28:02;5.00;;;2.58;;
59555;SDS011;45374;52.746;6.304;2022-07-29T00:30:28;5.28;;;2.72;;
59555;SDS011;45374;52.746;6.304;2022-07-29T00:32:53;7.53;;;2.50;;
59555;SDS011;45374;52.746;6.304;2022-07-29T00:35:19;5.97;;;2.40;;
59555;SDS011;45374;52.746;6.304;2022-07-29T00:38:03;6.00;;;2.83;;
59555;SDS011;45374;52.746;6.304;2022-07-29T00:40:29;4.15;;;2.47;;
59555;SDS011;45374;52.746;6.304;2022-07-29T00:42:54;6.25;;;2.78;;
59555;SDS011;45374;52.746;6.304;2022-07-29T00:45:20;8.25;;;2.88;;
59555;SDS011;45374;52.746;6.304;2022-07-29T00:47:47;5.95;;;3.22;;
59555;SDS011;45374;52.746;6.304;2022-07-29T00:50:12;5.10;;;2.70;;
59555;SDS011;45374;52.746;6.304;2022-07-29T00:52:39;4.63;;;2.58;;
59555;SDS011;45374;52.746;6.304;2022-07-29T00:55:06;4.70;;;2.92;;
59555;SDS011;45374;52.746;6.304;2022-07-29T00:57:37;5.03;;;2.80;;
59555;SDS011;45374;52.746;6.304;2022-07-29T01:00:03;6.53;;;2.95;;
59555;SDS011;45374;52.746;6.304;2022-07-29T01:02:32;7.47;;;3.05;;
59555;SDS011;45374;52.746;6.304;2022-07-29T01:04:58;7.65;;;3.10;;
59555;SDS011;45374;52.746;6.304;2022-07-29T01:07:24;6.43;;;2.90;;
59555;SDS011;45374;52.746;6.304;2022-07-29T01:09:51;5.32;;;2.80;;
59555;SDS011;45374;52.746;6.304;2022-07-29T01:12:20;6.25;;;2.88;;
59555;SDS011;45374;52.746;6.304;2022-07-29T01:14:51;3.72;;;2.78;;
59555;SDS011;45374;52.746;6.304;2022-07-29T01:17:26;8.20;;;3.08;;
59555;SDS011;45374;52.746;6.304;2022-07-29T01:34:53;6.47;;;3.50;;
59555;SDS011;45374;52.746;6.304;2022-07-29T01:37:43;7.15;;;3.33;;
59555;SDS011;45374;52.746;6.304;2022-07-29T01:40:58;6.07;;;3.40;;
59555;SDS011;45374;52.746;6.304;2022-07-29T01:43:21;6.43;;;3.33;;
59555;SDS011;45374;52.746;6.304;2022-07-29T01:46:02;7.70;;;3.60;;
59555;SDS011;45374;52.746;6.304;2022-07-29T01:48:32;8.15;;;3.28;;
59555;SDS011;45374;52.746;6.304;2022-07-29T01:53:32;9.07;;;3.45;;
59555;SDS011;45374;52.746;6.304;2022-07-29T01:56:01;6.60;;;3.50;;
59555;SDS011;45374;52.746;6.304;2022-07-29T01:58:28;5.88;;;3.42;;
59555;SDS011;45374;52.746;6.304;2022-07-29T02:00:57;5.72;;;3.30;;
59555;SDS011;45374;52.746;6.304;2022-07-29T02:03:24;6.05;;;3.22;;
59555;SDS011;45374;52.746;6.304;2022-07-29T02:05:52;6.45;;;3.30;;
59555;SDS011;45374;52.746;6.304;2022-07-29T02:08:21;6.78;;;3.42;;
59555;SDS011;45374;52.746;6.304;2022-07-29T02:10:48;6.10;;;3.20;;
59555;SDS011;45374;52.746;6.304;2022-07-29T02:13:15;5.57;;;3.08;;
59555;SDS011;45374;52.746;6.304;2022-07-29T02:15:43;7.95;;;3.38;;
59555;SDS011;45374;52.746;6.304;2022-07-29T02:18:17;5.00;;;3.15;;
59555;SDS011;45374;52.746;6.304;2022-07-29T02:20:47;7.00;;;3.35;;
59555;SDS011;45374;52.746;6.304;2022-07-29T02:23:19;8.77;;;3.03;;
59555;SDS011;45374;52.746;6.304;2022-07-29T02:25:49;8.50;;;3.20;;
59555;SDS011;45374;52.746;6.304;2022-07-29T02:28:18;8.13;;;2.90;;
59555;SDS011;45374;52.746;6.304;2022-07-29T02:30:45;6.63;;;3.10;;
59555;SDS011;45374;52.746;6.304;2022-07-29T02:33:13;7.18;;;2.95;;
59555;SDS011;45374;52.746;6.304;2022-07-29T02:35:40;6.07;;;3.08;;
59555;SDS011;45374;52.746;6.304;2022-07-29T02:38:09;6.63;;;2.97;;
59555;SDS011;45374;52.746;6.304;2022-07-29T02:40:58;6.85;;;2.97;;
59555;SDS011;45374;52.746;6.304;2022-07-29T02:43:28;7.68;;;3.55;;
59555;SDS011;45374;52.746;6.304;2022-07-29T02:45:56;8.55;;;3.03;;
59555;SDS011;45374;52.746;6.304;2022-07-29T02:48:27;8.48;;;3.40;;
59555;SDS011;45374;52.746;6.304;2022-07-29T02:51:01;6.80;;;2.80;;
59555;SDS011;45374;52.746;6.304;2022-07-29T02:53:37;5.20;;;2.95;;
59555;SDS011;45374;52.746;6.304;2022-07-29T02:56:12;7.25;;;2.88;;
59555;SDS011;45374;52.746;6.304;2022-07-29T02:58:45;10.63;;;3.08;;
59555;SDS011;45374;52.746;6.304;2022-07-29T03:01:16;8.40;;;2.90;;
59555;SDS011;45374;52.746;6.304;2022-07-29T03:03:48;6.43;;;3.03;;
59555;SDS011;45374;52.746;6.304;2022-07-29T03:06:16;5.50;;;2.80;;
59555;SDS011;45374;52.746;6.304;2022-07-29T03:08:43;6.15;;;2.75;;
59555;SDS011;45374;52.746;6.304;2022-07-29T03:11:10;7.60;;;2.92;;
59555;SDS011;45374;52.746;6.304;2022-07-29T03:13:36;6.82;;;2.83;;
59555;SDS011;45374;52.746;6.304;2022-07-29T03:16:02;4.40;;;3.08;;
59555;SDS011;45374;52.746;6.304;2022-07-29T03:18:29;6.53;;;2.72;;
59555;SDS011;45374;52.746;6.304;2022-07-29T03:20:55;6.43;;;2.70;;
59555;SDS011;45374;52.746;6.304;2022-07-29T03:23:22;6.53;;;2.83;;
59555;SDS011;45374;52.746;6.304;2022-07-29T03:25:52;4.90;;;2.90;;
59555;SDS011;45374;52.746;6.304;2022-07-29T03:28:17;8.60;;;2.92;;
59555;SDS011;45374;52.746;6.304;2022-07-29T03:30:43;7.30;;;3.20;;
59555;SDS011;45374;52.746;6.304;2022-07-29T03:33:09;5.60;;;2.75;;
59555;SDS011;45374;52.746;6.304;2022-07-29T03:35:35;6.32;;;3.00;;
59555;SDS011;45374;52.746;6.304;2022-07-29T03:38:00;5.85;;;2.90;;
59555;SDS011;45374;52.746;6.304;2022-07-29T03:40:27;4.95;;;2.95;;
59555;SDS011;45374;52.746;6.304;2022-07-29T03:43:05;5.85;;;2.85;;
59555;SDS011;45374;52.746;6.304;2022-07-29T03:45:32;6.55;;;2.65;;
59555;SDS011;45374;52.746;6.304;2022-07-29T03:48:01;5.40;;;2.97;;
59555;SDS011;45374;52.746;6.304;2022-07-29T03:50:31;5.68;;;3.17;;
59555;SDS011;45374;52.746;6.304;2022-07-29T03:52:58;5.10;;;2.92;;
59555;SDS011;45374;52.746;6.304;2022-07-29T03:55:25;6.82;;;3.17;;
59555;SDS011;45374;52.746;6.304;2022-07-29T03:57:53;5.50;;;2.80;;
59555;SDS011;45374;52.746;6.304;2022-07-29T04:00:22;5.85;;;3.10;;
59555;SDS011;45374;52.746;6.304;2022-07-29T04:02:52;5.32;;;2.85;;
59555;SDS011;45374;52.746;6.304;2022-07-29T04:05:17;5.80;;;2.70;;
59555;SDS011;45374;52.746;6.304;2022-07-29T04:07:44;8.10;;;3.03;;
59555;SDS011;45374;52.746;6.304;2022-07-29T04:10:13;6.63;;;3.15;;
59555;SDS011;45374;52.746;6.304;2022-07-29T04:12:40;6.03;;;3.13;;
59555;SDS011;45374;52.746;6.304;2022-07-29T04:15:06;7.00;;;3.05;;
59555;SDS011;45374;52.746;6.304;2022-07-29T04:17:32;6.50;;;3.17;;
59555;SDS011;45374;52.746;6.304;2022-07-29T04:19:58;7.50;;;2.90;;
59555;SDS011;45374;52.746;6.304;2022-07-29T04:22:23;8.73;;;3.05;;
59555;SDS011;45374;52.746;6.304;2022-07-29T04:24:49;8.15;;;3.20;;
59555;SDS011;45374;52.746;6.304;2022-07-29T04:27:15;10.70;;;2.90;;
59555;SDS011;45374;52.746;6.304;2022-07-29T04:29:41;6.93;;;2.78;;
59555;SDS011;45374;52.746;6.304;2022-07-29T04:32:06;6.03;;;2.97;;
59555;SDS011;45374;52.746;6.304;2022-07-29T04:34:32;6.53;;;3.20;;
59555;SDS011;45374;52.746;6.304;2022-07-29T04:36:57;5.43;;;2.78;;
59555;SDS011;45374;52.746;6.304;2022-07-29T04:39:23;8.40;;;3.30;;
59555;SDS011;45374;52.746;6.304;2022-07-29T04:41:49;8.27;;;3.08;;
59555;SDS011;45374;52.746;6.304;2022-07-29T04:44:15;4.88;;;3.17;;
59555;SDS011;45374;52.746;6.304;2022-07-29T04:46:41;5.78;;;2.90;;
59555;SDS011;45374;52.746;6.304;2022-07-29T04:49:06;6.72;;;2.95;;
59555;SDS011;45374;52.746;6.304;2022-07-29T04:51:32;10.02;;;3.13;;
59555;SDS011;45374;52.746;6.304;2022-07-29T04:53:58;6.93;;;3.15;;
59555;SDS011;45374;52.746;6.304;2022-07-29T04:56:24;6.93;;;3.15;;
59555;SDS011;45374;52.746;6.304;2022-07-29T04:58:52;9.02;;;3.15;;
59555;SDS011;45374;52.746;6.304;2022-07-29T05:01:18;8.88;;;2.92;;
59555;SDS011;45374;52.746;6.304;2022-07-29T05:03:44;4.55;;;2.95;;
59555;SDS011;45374;52.746;6.304;2022-07-29T05:06:10;5.88;;;2.80;;
59555;SDS011;45374;52.746;6.304;2022-07-29T05:08:36;6.32;;;2.90;;
59555;SDS011;45374;52.746;6.304;2022-07-29T05:11:02;6.38;;;3.00;;
59555;SDS011;45374;52.746;6.304;2022-07-29T05:13:28;7.95;;;3.10;;
59555;SDS011;45374;52.746;6.304;2022-07-29T05:15:54;6.80;;;3.15;;
59555;SDS011;45374;52.746;6.304;2022-07-29T05:18:20;9.02;;;3.42;;
59555;SDS011;45374;52.746;6.304;2022-07-29T05:20:45;6.70;;;3.17;;
59555;SDS011;45374;52.746;6.304;2022-07-29T05:23:11;7.47;;;3.38;;
59555;SDS011;45374;52.746;6.304;2022-07-29T05:25:39;7.32;;;3.17;;
59555;SDS011;45374;52.746;6.304;2022-07-29T05:28:05;7.95;;;2.92;;
59555;SDS011;45374;52.746;6.304;2022-07-29T05:30:30;11.15;;;3.17;;
59555;SDS011;45374;52.746;6.304;2022-07-29T05:32:56;7.35;;;3.30;;
59555;SDS011;45374;52.746;6.304;2022-07-29T05:35:22;8.10;;;3.35;;
59555;SDS011;45374;52.746;6.304;2022-07-29T05:37:47;7.57;;;3.30;;
59555;SDS011;45374;52.746;6.304;2022-07-29T05:40:13;9.88;;;3.38;;
59555;SDS011;45374;52.746;6.304;2022-07-29T05:42:38;6.68;;;2.92;;
59555;SDS011;45374;52.746;6.304;2022-07-29T05:45:04;5.85;;;3.10;;
59555;SDS011;45374;52.746;6.304;2022-07-29T05:47:30;6.75;;;3.20;;
59555;SDS011;45374;52.746;6.304;2022-07-29T05:49:56;7.13;;;3.05;;
59555;SDS011;45374;52.746;6.304;2022-07-29T05:52:22;5.93;;;3.40;;
59555;SDS011;45374;52.746;6.304;2022-07-29T05:54:48;10.38;;;3.50;;
59555;SDS011;45374;52.746;6.304;2022-07-29T05:57:20;7.20;;;3.17;;
59555;SDS011;45374;52.746;6.304;2022-07-29T05:59:47;8.48;;;3.50;;
59555;SDS011;45374;52.746;6.304;2022-07-29T06:02:14;11.93;;;3.30;;
59555;SDS011;45374;52.746;6.304;2022-07-29T06:04:40;11.30;;;3.05;;
59555;SDS011;45374;52.746;6.304;2022-07-29T06:07:06;7.68;;;3.25;;
59555;SDS011;45374;52.746;6.304;2022-07-29T06:09:32;7.60;;;3.08;;
59555;SDS011;45374;52.746;6.304;2022-07-29T06:11:58;8.35;;;3.60;;
59555;SDS011;45374;52.746;6.304;2022-07-29T06:14:24;5.72;;;3.10;;
59555;SDS011;45374;52.746;6.304;2022-07-29T06:16:51;6.13;;;3.20;;
59555;SDS011;45374;52.746;6.304;2022-07-29T06:19:18;10.38;;;3.35;;
59555;SDS011;45374;52.746;6.304;2022-07-29T06:21:44;8.27;;;3.60;;
59555;SDS011;45374;52.746;6.304;2022-07-29T06:24:11;10.23;;;3.55;;
59555;SDS011;45374;52.746;6.304;2022-07-29T06:26:37;8.35;;;3.17;;
59555;SDS011;45374;52.746;6.304;2022-07-29T06:29:04;9.75;;;3.80;;
59555;SDS011;45374;52.746;6.304;2022-07-29T06:31:30;7.60;;;3.22;;
59555;SDS011;45374;52.746;6.304;2022-07-29T06:33:56;6.47;;;3.70;;
59555;SDS011;45374;52.746;6.304;2022-07-29T06:36:21;7.85;;;3.47;;
59555;SDS011;45374;52.746;6.304;2022-07-29T06:38:47;6.28;;;3.50;;
59555;SDS011;45374;52.746;6.304;2022-07-29T06:41:12;7.68;;;3.55;;
59555;SDS011;45374;52.746;6.304;2022-07-29T06:43:41;8.73;;;3.83;;
59555;SDS011;45374;52.746;6.304;2022-07-29T06:46:08;14.02;;;3.92;;
59555;SDS011;45374;52.746;6.304;2022-07-29T06:48:39;13.27;;;3.65;;
59555;SDS011;45374;52.746;6.304;2022-07-29T06:51:07;7.40;;;3.55;;
59555;SDS011;45374;52.746;6.304;2022-07-29T06:53:33;7.85;;;3.78;;
59555;SDS011;45374;52.746;6.304;2022-07-29T06:55:59;15.30;;;4.28;;
59555;SDS011;45374;52.746;6.304;2022-07-29T06:58:26;9.48;;;3.80;;
59555;SDS011;45374;52.746;6.304;2022-07-29T07:00:53;12.88;;;3.63;;
59555;SDS011;45374;52.746;6.304;2022-07-29T07:03:19;7.95;;;3.45;;
59555;SDS011;45374;52.746;6.304;2022-07-29T07:05:45;8.82;;;3.50;;
59555;SDS011;45374;52.746;6.304;2022-07-29T07:08:11;11.90;;;3.80;;
59555;SDS011;45374;52.746;6.304;2022-07-29T07:10:40;16.40;;;3.88;;
59555;SDS011;45374;52.746;6.304;2022-07-29T07:13:05;13.45;;;4.00;;
59555;SDS011;45374;52.746;6.304;2022-07-29T07:15:31;9.65;;;3.97;;
59555;SDS011;45374;52.746;6.304;2022-07-29T07:17:57;14.23;;;4.10;;
59555;SDS011;45374;52.746;6.304;2022-07-29T07:20:23;7.40;;;4.13;;
59555;SDS011;45374;52.746;6.304;2022-07-29T07:22:49;10.82;;;4.32;;
59555;SDS011;45374;52.746;6.304;2022-07-29T07:25:14;9.15;;;4.28;;
59555;SDS011;45374;52.746;6.304;2022-07-29T07:27:42;9.15;;;3.95;;
59555;SDS011;45374;52.746;6.304;2022-07-29T07:32:59;9.30;;;3.78;;
59555;SDS011;45374;52.746;6.304;2022-07-29T07:35:25;11.68;;;4.35;;
59555;SDS011;45374;52.746;6.304;2022-07-29T07:37:52;10.30;;;4.22;;
59555;SDS011;45374;52.746;6.304;2022-07-29T07:40:18;11.13;;;4.10;;
59555;SDS011;45374;52.746;6.304;2022-07-29T07:42:44;10.38;;;4.18;;
59555;SDS011;45374;52.746;6.304;2022-07-29T07:45:10;8.65;;;3.97;;
59555;SDS011;45374;52.746;6.304;2022-07-29T07:47:36;10.15;;;4.07;;
59555;SDS011;45374;52.746;6.304;2022-07-29T07:50:04;9.25;;;4.20;;
59555;SDS011;45374;52.746;6.304;2022-07-29T07:52:33;8.32;;;3.90;;
59555;SDS011;45374;52.746;6.304;2022-07-29T07:54:59;10.35;;;4.20;;
59555;SDS011;45374;52.746;6.304;2022-07-29T07:57:25;11.88;;;4.35;;
59555;SDS011;45374;52.746;6.304;2022-07-29T07:59:50;11.63;;;4.07;;
59555;SDS011;45374;52.746;6.304;2022-07-29T08:02:16;10.88;;;4.70;;
59555;SDS011;45374;52.746;6.304;2022-07-29T08:04:41;8.05;;;4.25;;
59555;SDS011;45374;52.746;6.304;2022-07-29T08:07:07;11.80;;;4.60;;
59555;SDS011;45374;52.746;6.304;2022-07-29T08:09:33;10.18;;;4.63;;
59555;SDS011;45374;52.746;6.304;2022-07-29T08:12:00;10.32;;;4.88;;
59555;SDS011;45374;52.746;6.304;2022-07-29T08:14:30;12.35;;;4.43;;
59555;SDS011;45374;52.746;6.304;2022-07-29T08:16:56;7.47;;;4.15;;
59555;SDS011;45374;52.746;6.304;2022-07-29T08:19:22;11.93;;;4.15;;
59555;SDS011;45374;52.746;6.304;2022-07-29T08:21:48;10.80;;;4.22;;
59555;SDS011;45374;52.746;6.304;2022-07-29T08:24:14;10.40;;;4.55;;
59555;SDS011;45374;52.746;6.304;2022-07-29T08:26:58;8.35;;;4.60;;
59555;SDS011;45374;52.746;6.304;2022-07-29T08:29:24;10.43;;;4.63;;
59555;SDS011;45374;52.746;6.304;2022-07-29T08:31:49;7.30;;;4.60;;
59555;SDS011;45374;52.746;6.304;2022-07-29T08:34:15;6.95;;;4.35;;
59555;SDS011;45374;52.746;6.304;2022-07-29T08:36:41;7.28;;;4.10;;
59555;SDS011;45374;52.746;6.304;2022-07-29T08:39:06;9.68;;;4.30;;
59555;SDS011;45374;52.746;6.304;2022-07-29T08:41:32;11.07;;;4.47;;
59555;SDS011;45374;52.746;6.304;2022-07-29T08:43:59;8.25;;;4.50;;
59555;SDS011;45374;52.746;6.304;2022-07-29T08:46:25;11.57;;;4.70;;
59555;SDS011;45374;52.746;6.304;2022-07-29T08:48:51;13.15;;;5.05;;
59555;SDS011;45374;52.746;6.304;2022-07-29T08:51:18;9.15;;;4.90;;
59555;SDS011;45374;52.746;6.304;2022-07-29T08:53:46;8.60;;;4.82;;
59555;SDS011;45374;52.746;6.304;2022-07-29T08:56:14;9.20;;;4.82;;
59555;SDS011;45374;52.746;6.304;2022-07-29T08:58:42;11.85;;;5.43;;
59555;SDS011;45374;52.746;6.304;2022-07-29T09:01:07;10.50;;;5.30;;
59555;SDS011;45374;52.746;6.304;2022-07-29T09:03:36;13.02;;;5.32;;
59555;SDS011;45374;52.746;6.304;2022-07-29T09:06:04;12.70;;;5.15;;
59555;SDS011;45374;52.746;6.304;2022-07-29T09:08:31;9.10;;;5.40;;
59555;SDS011;45374;52.746;6.304;2022-07-29T09:10:57;10.38;;;5.30;;
59555;SDS011;45374;52.746;6.304;2022-07-29T09:13:25;10.43;;;5.35;;
59555;SDS011;45374;52.746;6.304;2022-07-29T09:15:51;11.13;;;5.25;;
59555;SDS011;45374;52.746;6.304;2022-07-29T09:18:33;9.82;;;4.85;;
59555;SDS011;45374;52.746;6.304;2022-07-29T09:21:01;15.73;;;5.15;;
59555;SDS011;45374;52.746;6.304;2022-07-29T09:26:33;13.50;;;4.90;;
59555;SDS011;45374;52.746;6.304;2022-07-29T09:29:15;10.77;;;4.80;;
59555;SDS011;45374;52.746;6.304;2022-07-29T09:31:43;9.98;;;4.93;;
59555;SDS011;45374;52.746;6.304;2022-07-29T09:34:14;9.20;;;4.60;;
59555;SDS011;45374;52.746;6.304;2022-07-29T09:36:45;13.05;;;5.88;;
59555;SDS011;45374;52.746;6.304;2022-07-29T09:39:12;8.10;;;5.72;;
59555;SDS011;45374;52.746;6.304;2022-07-29T09:41:46;11.60;;;5.00;;
59555;SDS011;45374;52.746;6.304;2022-07-29T09:44:20;11.90;;;4.72;;
59555;SDS011;45374;52.746;6.304;2022-07-29T09:46:57;9.23;;;4.72;;
59555;SDS011;45374;52.746;6.304;2022-07-29T09:49:27;7.82;;;5.00;;
59555;SDS011;45374;52.746;6.304;2022-07-29T09:52:06;9.93;;;5.00;;
59555;SDS011;45374;52.746;6.304;2022-07-29T09:54:33;8.55;;;4.50;;
59555;SDS011;45374;52.746;6.304;2022-07-29T09:57:02;9.90;;;4.97;;
59555;SDS011;45374;52.746;6.304;2022-07-29T09:59:29;9.85;;;4.80;;
59555;SDS011;45374;52.746;6.304;2022-07-29T10:01:55;9.43;;;4.60;;
59555;SDS011;45374;52.746;6.304;2022-07-29T10:04:21;9.70;;;4.68;;
59555;SDS011;45374;52.746;6.304;2022-07-29T10:06:57;11.10;;;4.82;;
59555;SDS011;45374;52.746;6.304;2022-07-29T10:09:27;11.13;;;4.82;;
59555;SDS011;45374;52.746;6.304;2022-07-29T10:12:03;9.80;;;4.93;;
59555;SDS011;45374;52.746;6.304;2022-07-29T10:14:39;7.97;;;4.75;;
59555;SDS011;45374;52.746;6.304;2022-07-29T10:17:06;8.70;;;4.55;;
59555;SDS011;45374;52.746;6.304;2022-07-29T10:19:33;11.45;;;4.80;;
59555;SDS011;45374;52.746;6.304;2022-07-29T10:22:01;12.35;;;5.28;;
59555;SDS011;45374;52.746;6.304;2022-07-29T10:24:29;12.35;;;5.07;;
59555;SDS011;45374;52.746;6.304;2022-07-29T10:26:56;8.75;;;4.70;;
59555;SDS011;45374;52.746;6.304;2022-07-29T10:29:23;8.63;;;5.35;;
59555;SDS011;45374;52.746;6.304;2022-07-29T10:34:45;9.82;;;5.05;;
59555;SDS011;45374;52.746;6.304;2022-07-29T10:43:02;11.32;;;4.93;;
59555;SDS011;45374;52.746;6.304;2022-07-29T10:45:42;10.77;;;5.35;;
59555;SDS011;45374;52.746;6.304;2022-07-29T10:48:09;10.20;;;4.90;;
59555;SDS011;45374;52.746;6.304;2022-07-29T10:53:20;8.40;;;5.20;;
59555;SDS011;45374;52.746;6.304;2022-07-29T10:55:50;11.93;;;5.05;;
59555;SDS011;45374;52.746;6.304;2022-07-29T10:58:20;10.85;;;5.43;;
59555;SDS011;45374;52.746;6.304;2022-07-29T11:00:50;8.65;;;5.32;;
59555;SDS011;45374;52.746;6.304;2022-07-29T11:06:16;8.57;;;4.82;;
59555;SDS011;45374;52.746;6.304;2022-07-29T11:08:42;11.88;;;5.20;;
59555;SDS011;45374;52.746;6.304;2022-07-29T11:18:06;15.90;;;5.60;;
59555;SDS011;45374;52.746;6.304;2022-07-29T11:25:42;13.18;;;5.18;;
59555;SDS011;45374;52.746;6.304;2022-07-29T11:28:16;11.65;;;5.05;;
59555;SDS011;45374;52.746;6.304;2022-07-29T11:30:48;11.73;;;4.95;;
59555;SDS011;45374;52.746;6.304;2022-07-29T11:33:31;10.82;;;4.40;;
59555;SDS011;45374;52.746;6.304;2022-07-29T11:36:15;9.85;;;4.45;;
59555;SDS011;45374;52.746;6.304;2022-07-29T11:38:41;27.27;;;5.20;;
59555;SDS011;45374;52.746;6.304;2022-07-29T11:47:31;9.00;;;4.20;;
59555;SDS011;45374;52.746;6.304;2022-07-29T11:50:00;7.72;;;4.10;;
59555;SDS011;45374;52.746;6.304;2022-07-29T11:52:40;11.07;;;4.60;;
59555;SDS011;45374;52.746;6.304;2022-07-29T11:55:15;10.45;;;4.43;;
59555;SDS011;45374;52.746;6.304;2022-07-29T11:57:50;9.00;;;4.40;;
59555;SDS011;45374;52.746;6.304;2022-07-29T12:03:42;12.25;;;4.32;;
59555;SDS011;45374;52.746;6.304;2022-07-29T12:06:12;9.88;;;4.78;;
59555;SDS011;45374;52.746;6.304;2022-07-29T12:08:39;7.07;;;4.65;;
59555;SDS011;45374;52.746;6.304;2022-07-29T12:11:14;13.15;;;5.78;;
59555;SDS011;45374;52.746;6.304;2022-07-29T12:13:43;9.10;;;5.30;;
59555;SDS011;45374;52.746;6.304;2022-07-29T12:16:09;8.38;;;4.95;;
59555;SDS011;45374;52.746;6.304;2022-07-29T12:18:34;9.90;;;4.60;;
59555;SDS011;45374;52.746;6.304;2022-07-29T12:21:00;14.50;;;5.55;;
59555;SDS011;45374;52.746;6.304;2022-07-29T12:23:32;10.15;;;5.93;;
59555;SDS011;45374;52.746;6.304;2022-07-29T12:25:58;31.67;;;5.40;;
59555;SDS011;45374;52.746;6.304;2022-07-29T12:28:24;12.95;;;4.72;;
59555;SDS011;45374;52.746;6.304;2022-07-29T12:30:50;10.65;;;5.07;;
59555;SDS011;45374;52.746;6.304;2022-07-29T12:33:18;11.20;;;5.07;;
59555;SDS011;45374;52.746;6.304;2022-07-29T12:35:59;10.77;;;4.85;;
59555;SDS011;45374;52.746;6.304;2022-07-29T12:38:26;12.45;;;5.90;;
59555;SDS011;45374;52.746;6.304;2022-07-29T12:40:53;12.23;;;4.63;;
59555;SDS011;45374;52.746;6.304;2022-07-29T12:43:20;9.57;;;5.53;;
59555;SDS011;45374;52.746;6.304;2022-07-29T12:45:53;13.82;;;5.40;;
59555;SDS011;45374;52.746;6.304;2022-07-29T12:48:35;12.10;;;5.45;;
59555;SDS011;45374;52.746;6.304;2022-07-29T12:51:02;12.13;;;5.60;;
59555;SDS011;45374;52.746;6.304;2022-07-29T12:53:29;11.23;;;5.30;;
59555;SDS011;45374;52.746;6.304;2022-07-29T12:55:56;14.35;;;5.20;;
59555;SDS011;45374;52.746;6.304;2022-07-29T13:01:13;11.45;;;5.30;;
59555;SDS011;45374;52.746;6.304;2022-07-29T13:11:39;12.30;;;5.28;;
59555;SDS011;45374;52.746;6.304;2022-07-29T13:14:10;11.82;;;4.50;;
59555;SDS011;45374;52.746;6.304;2022-07-29T13:16:38;12.85;;;5.45;;
59555;SDS011;45374;52.746;6.304;2022-07-29T13:22:05;11.88;;;5.50;;
59555;SDS011;45374;52.746;6.304;2022-07-29T13:24:31;11.45;;;5.13;;
59555;SDS011;45374;52.746;6.304;2022-07-29T13:26:57;8.48;;;5.00;;
59555;SDS011;45374;52.746;6.304;2022-07-29T13:29:23;10.40;;;5.30;;
59555;SDS011;45374;52.746;6.304;2022-07-29T13:31:48;9.40;;;5.20;;
59555;SDS011;45374;52.746;6.304;2022-07-29T13:34:14;12.52;;;5.18;;
59555;SDS011;45374;52.746;6.304;2022-07-29T13:36:40;17.55;;;5.80;;
59555;SDS011;45374;52.746;6.304;2022-07-29T13:39:05;9.05;;;5.13;;
59555;SDS011;45374;52.746;6.304;2022-07-29T13:41:31;9.68;;;4.95;;
59555;SDS011;45374;52.746;6.304;2022-07-29T13:43:56;12.15;;;5.50;;
59555;SDS011;45374;52.746;6.304;2022-07-29T13:46:22;9.65;;;4.97;;
59555;SDS011;45374;52.746;6.304;2022-07-29T13:48:47;9.50;;;5.10;;
59555;SDS011;45374;52.746;6.304;2022-07-29T13:51:13;10.85;;;4.90;;
59555;SDS011;45374;52.746;6.304;2022-07-29T13:53:38;15.05;;;4.82;;
59555;SDS011;45374;52.746;6.304;2022-07-29T13:56:04;10.38;;;5.80;;
59555;SDS011;45374;52.746;6.304;2022-07-29T13:58:31;10.50;;;5.10;;
59555;SDS011;45374;52.746;6.304;2022-07-29T14:00:58;15.85;;;5.38;;
59555;SDS011;45374;52.746;6.304;2022-07-29T14:03:24;10.35;;;5.13;;
59555;SDS011;45374;52.746;6.304;2022-07-29T14:05:50;9.23;;;4.57;;
59555;SDS011;45374;52.746;6.304;2022-07-29T14:08:15;8.80;;;4.50;;
59555;SDS011;45374;52.746;6.304;2022-07-29T14:10:41;11.88;;;5.38;;
59555;SDS011;45374;52.746;6.304;2022-07-29T14:13:06;7.82;;;4.00;;
59555;SDS011;45374;52.746;6.304;2022-07-29T14:15:32;9.27;;;4.47;;
59555;SDS011;45374;52.746;6.304;2022-07-29T14:17:58;12.65;;;4.45;;
59555;SDS011;45374;52.746;6.304;2022-07-29T14:20:37;6.35;;;4.10;;
59555;SDS011;45374;52.746;6.304;2022-07-29T14:23:03;9.98;;;4.00;;
59555;SDS011;45374;52.746;6.304;2022-07-29T14:25:29;8.48;;;4.00;;
59555;SDS011;45374;52.746;6.304;2022-07-29T14:27:54;11.63;;;3.50;;
59555;SDS011;45374;52.746;6.304;2022-07-29T14:30:20;9.98;;;3.70;;
59555;SDS011;45374;52.746;6.304;2022-07-29T14:32:46;7.28;;;4.05;;
59555;SDS011;45374;52.746;6.304;2022-07-29T14:35:11;7.72;;;3.40;;
59555;SDS011;45374;52.746;6.304;2022-07-29T14:37:37;9.88;;;3.25;;
59555;SDS011;45374;52.746;6.304;2022-07-29T14:40:03;8.90;;;3.35;;
59555;SDS011;45374;52.746;6.304;2022-07-29T14:42:30;9.88;;;3.60;;
59555;SDS011;45374;52.746;6.304;2022-07-29T14:44:58;10.30;;;3.45;;
59555;SDS011;45374;52.746;6.304;2022-07-29T14:47:24;6.78;;;3.40;;
59555;SDS011;45374;52.746;6.304;2022-07-29T14:49:49;7.65;;;3.28;;
59555;SDS011;45374;52.746;6.304;2022-07-29T14:52:15;10.50;;;3.30;;
59555;SDS011;45374;52.746;6.304;2022-07-29T14:54:41;5.38;;;3.13;;
59555;SDS011;45374;52.746;6.304;2022-07-29T14:57:06;5.55;;;3.13;;
59555;SDS011;45374;52.746;6.304;2022-07-29T14:59:32;8.75;;;3.53;;
59555;SDS011;45374;52.746;6.304;2022-07-29T15:01:58;7.43;;;3.10;;
59555;SDS011;45374;52.746;6.304;2022-07-29T15:04:23;11.32;;;3.10;;
59555;SDS011;45374;52.746;6.304;2022-07-29T15:06:49;7.45;;;2.63;;
59555;SDS011;45374;52.746;6.304;2022-07-29T15:09:15;7.38;;;3.05;;
59555;SDS011;45374;52.746;6.304;2022-07-29T15:11:40;9.02;;;3.15;;
59555;SDS011;45374;52.746;6.304;2022-07-29T15:14:06;6.75;;;2.92;;
59555;SDS011;45374;52.746;6.304;2022-07-29T15:16:32;9.60;;;2.95;;
59555;SDS011;45374;52.746;6.304;2022-07-29T15:19:04;6.40;;;2.75;;
59555;SDS011;45374;52.746;6.304;2022-07-29T15:21:30;7.00;;;2.88;;
59555;SDS011;45374;52.746;6.304;2022-07-29T15:23:56;6.63;;;3.08;;
59555;SDS011;45374;52.746;6.304;2022-07-29T15:26:22;6.50;;;3.10;;
59555;SDS011;45374;52.746;6.304;2022-07-29T15:28:48;4.35;;;2.67;;
59555;SDS011;45374;52.746;6.304;2022-07-29T15:31:13;8.90;;;3.45;;
59555;SDS011;45374;52.746;6.304;2022-07-29T15:33:39;7.05;;;3.53;;
59555;SDS011;45374;52.746;6.304;2022-07-29T15:36:05;6.13;;;3.22;;
59555;SDS011;45374;52.746;6.304;2022-07-29T15:38:31;7.03;;;3.20;;
59555;SDS011;45374;52.746;6.304;2022-07-29T15:40:56;19.05;;;3.72;;
59555;SDS011;45374;52.746;6.304;2022-07-29T15:43:22;5.63;;;3.22;;
59555;SDS011;45374;52.746;6.304;2022-07-29T15:45:48;6.82;;;3.10;;
59555;SDS011;45374;52.746;6.304;2022-07-29T15:48:33;10.60;;;3.13;;
59555;SDS011;45374;52.746;6.304;2022-07-29T15:51:02;4.93;;;3.22;;
59555;SDS011;45374;52.746;6.304;2022-07-29T15:53:27;6.43;;;3.05;;
59555;SDS011;45374;52.746;6.304;2022-07-29T15:55:53;5.72;;;3.17;;
59555;SDS011;45374;52.746;6.304;2022-07-29T15:58:19;9.40;;;3.28;;
59555;SDS011;45374;52.746;6.304;2022-07-29T16:00:44;3.53;;;3.05;;